sensor_id;sensor_type;location;lat;lon;timestamp;pressure;altitude;pressure_sealevel;temperature;humidity
56402;BME280;42299;35.160;26.100;2024-01-30T00:05:08;101863.72;;;10.37;100.00
56402;BME280;42299;35.160;26.100;2024-01-30T00:10:30;101882.88;;;10.83;100.00
56402;BME280;42299;35.160;26.100;2024-01-30T00:15:54;101887.78;;;10.72;100.00
56402;BME280;42299;35.160;26.100;2024-01-30T00:21:17;101874.56;;;10.72;95.85
56402;BME280;42299;35.160;26.100;2024-01-30T00:26:39;101879.78;;;10.70;93.63
56402;BME280;42299;35.160;26.100;2024-01-30T00:32:04;101872.31;;;10.84;85.21
56402;BME280;42299;35.160;26.100;2024-01-30T00:37:26;101860.63;;;10.76;90.73
56402;BME280;42299;35.160;26.100;2024-01-30T00:42:49;101864.19;;;10.78;89.12
56402;BME280;42299;35.160;26.100;2024-01-30T00:48:13;101874.69;;;10.75;89.74
56402;BME280;42299;35.160;26.100;2024-01-30T00:53:35;101870.00;;;10.66;92.50
56402;BME280;42299;35.160;26.100;2024-01-30T00:58:58;101869.66;;;10.83;90.92
56402;BME280;42299;35.160;26.100;2024-01-30T01:04:22;101893.38;;;11.08;93.21
56402;BME280;42299;35.160;26.100;2024-01-30T01:09:44;101888.16;;;10.83;95.81
56402;BME280;42299;35.160;26.100;2024-01-30T01:15:08;101892.84;;;9.68;100.00
56402;BME280;42299;35.160;26.100;2024-01-30T01:20:33;101881.03;;;8.48;100.00
56402;BME280;42299;35.160;26.100;2024-01-30T01:25:55;101854.75;;;8.29;100.00
56402;BME280;42299;35.160;26.100;2024-01-30T01:31:18;101849.72;;;8.97;100.00
56402;BME280;42299;35.160;26.100;2024-01-30T01:36:45;101859.59;;;9.25;100.00
56402;BME280;42299;35.160;26.100;2024-01-30T01:42:07;101841.06;;;9.46;100.00
56402;BME280;42299;35.160;26.100;2024-01-30T01:47:30;101837.13;;;9.58;100.00
56402;BME280;42299;35.160;26.100;2024-01-30T01:52:55;101860.88;;;9.82;100.00
56402;BME280;42299;35.160;26.100;2024-01-30T01:58:18;101863.81;;;9.91;100.00
56402;BME280;42299;35.160;26.100;2024-01-30T02:03:41;101848.59;;;9.83;100.00
56402;BME280;42299;35.160;26.100;2024-01-30T02:09:06;101854.97;;;9.66;100.00
56402;BME280;42299;35.160;26.100;2024-01-30T02:14:30;101843.19;;;9.80;100.00
56402;BME280;42299;35.160;26.100;2024-01-30T02:19:52;101819.25;;;9.99;100.00
56402;BME280;42299;35.160;26.100;2024-01-30T02:25:16;101831.75;;;9.79;100.00
56402;BME280;42299;35.160;26.100;2024-01-30T02:30:39;101833.16;;;9.70;100.00
56402;BME280;42299;35.160;26.100;2024-01-30T02:36:01;101830.44;;;9.92;100.00
56402;BME280;42299;35.160;26.100;2024-01-30T02:41:25;101839.44;;;9.73;100.00
56402;BME280;42299;35.160;26.100;2024-01-30T02:46:48;101820.97;;;9.73;100.00
56402;BME280;42299;35.160;26.100;2024-01-30T02:52:11;101815.63;;;9.72;100.00
56402;BME280;42299;35.160;26.100;2024-01-30T02:57:35;101807.66;;;9.94;100.00
56402;BME280;42299;35.160;26.100;2024-01-30T03:02:57;101802.31;;;9.43;100.00
56402;BME280;42299;35.160;26.100;2024-01-30T03:08:20;101808.13;;;8.89;100.00
56402;BME280;42299;35.160;26.100;2024-01-30T03:13:44;101794.50;;;9.23;100.00
56402;BME280;42299;35.160;26.100;2024-01-30T03:19:07;101791.28;;;9.30;100.00
56402;BME280;42299;35.160;26.100;2024-01-30T03:24:30;101773.09;;;9.13;100.00
56402;BME280;42299;35.160;26.100;2024-01-30T03:29:54;101754.22;;;9.25;100.00
56402;BME280;42299;35.160;26.100;2024-01-30T03:35:18;101768.66;;;9.60;100.00
56402;BME280;42299;35.160;26.100;2024-01-30T03:40:41;101762.72;;;9.91;100.00
56402;BME280;42299;35.160;26.100;2024-01-30T03:46:05;101752.22;;;10.18;100.00
56402;BME280;42299;35.160;26.100;2024-01-30T03:51:28;101745.75;;;9.83;100.00
56402;BME280;42299;35.160;26.100;2024-01-30T03:56:50;101744.72;;;9.79;100.00
56402;BME280;42299;35.160;26.100;2024-01-30T04:02:14;101754.38;;;10.04;100.00
56402;BME280;42299;35.160;26.100;2024-01-30T04:07:37;101746.25;;;9.73;100.00
56402;BME280;42299;35.160;26.100;2024-01-30T04:13:00;101772.09;;;9.57;100.00
56402;BME280;42299;35.160;26.100;2024-01-30T04:24:33;101772.63;;;9.98;100.00
56402;BME280;42299;35.160;26.100;2024-01-30T04:29:56;101782.53;;;10.05;100.00
56402;BME280;42299;35.160;26.100;2024-01-30T04:35:18;101762.56;;;9.86;100.00
56402;BME280;42299;35.160;26.100;2024-01-30T04:40:46;101771.91;;;10.02;100.00
56402;BME280;42299;35.160;26.100;2024-01-30T04:46:08;101764.41;;;9.89;100.00
56402;BME280;42299;35.160;26.100;2024-01-30T04:51:31;101753.53;;;9.80;100.00
56402;BME280;42299;35.160;26.100;2024-01-30T04:56:55;101774.75;;;9.59;100.00
56402;BME280;42299;35.160;26.100;2024-01-30T05:02:17;101778.72;;;9.23;100.00
56402;BME280;42299;35.160;26.100;2024-01-30T05:07:41;101772.00;;;8.85;100.00
56402;BME280;42299;35.160;26.100;2024-01-30T05:13:07;101800.34;;;8.69;100.00
56402;BME280;42299;35.160;26.100;2024-01-30T05:18:30;101801.53;;;8.55;100.00
56402;BME280;42299;35.160;26.100;2024-01-30T05:23:52;101793.69;;;9.01;100.00
56402;BME280;42299;35.160;26.100;2024-01-30T05:29:16;101762.00;;;8.98;100.00
56402;BME280;42299;35.160;26.100;2024-01-30T05:34:39;101751.00;;;9.10;100.00
56402;BME280;42299;35.160;26.100;2024-01-30T05:40:02;101763.19;;;9.30;100.00
56402;BME280;42299;35.160;26.100;2024-01-30T05:45:27;101763.78;;;9.47;100.00
56402;BME280;42299;35.160;26.100;2024-01-30T05:50:49;101781.44;;;9.73;100.00
56402;BME280;42299;35.160;26.100;2024-01-30T05:56:12;101773.72;;;9.30;100.00
56402;BME280;42299;35.160;26.100;2024-01-30T06:01:36;101783.09;;;9.00;100.00
56402;BME280;42299;35.160;26.100;2024-01-30T06:06:58;101779.91;;;8.85;100.00
56402;BME280;42299;35.160;26.100;2024-01-30T06:12:22;101774.19;;;9.18;100.00
56402;BME280;42299;35.160;26.100;2024-01-30T06:17:47;101779.59;;;9.47;100.00
56402;BME280;42299;35.160;26.100;2024-01-30T06:23:10;101764.84;;;9.76;100.00
56402;BME280;42299;35.160;26.100;2024-01-30T06:28:33;101769.34;;;10.57;100.00
56402;BME280;42299;35.160;26.100;2024-01-30T06:34:00;101789.72;;;10.61;100.00
56402;BME280;42299;35.160;26.100;2024-01-30T06:39:22;101765.78;;;10.03;100.00
56402;BME280;42299;35.160;26.100;2024-01-30T06:44:46;101749.06;;;10.03;100.00
56402;BME280;42299;35.160;26.100;2024-01-30T06:50:10;101755.38;;;10.33;100.00
56402;BME280;42299;35.160;26.100;2024-01-30T06:55:32;101753.03;;;10.42;100.00
56402;BME280;42299;35.160;26.100;2024-01-30T07:00:55;101748.66;;;10.43;100.00
56402;BME280;42299;35.160;26.100;2024-01-30T07:06:20;101745.94;;;10.68;100.00
56402;BME280;42299;35.160;26.100;2024-01-30T07:11:43;101738.66;;;10.89;100.00
56402;BME280;42299;35.160;26.100;2024-01-30T07:17:05;101731.84;;;11.58;100.00
56402;BME280;42299;35.160;26.100;2024-01-30T07:22:32;101742.63;;;11.66;96.96
56402;BME280;42299;35.160;26.100;2024-01-30T07:27:55;101744.88;;;13.32;89.54
56402;BME280;42299;35.160;26.100;2024-01-30T07:33:18;101745.78;;;16.52;61.61
56402;BME280;42299;35.160;26.100;2024-01-30T07:38:42;101737.00;;;14.36;73.33
56402;BME280;42299;35.160;26.100;2024-01-30T07:44:05;101737.81;;;12.53;94.21
56402;BME280;42299;35.160;26.100;2024-01-30T07:49:27;101744.53;;;12.05;89.48
56402;BME280;42299;35.160;26.100;2024-01-30T07:54:51;101745.16;;;12.29;79.70
56402;BME280;42299;35.160;26.100;2024-01-30T08:00:15;101741.94;;;12.81;71.46
56402;BME280;42299;35.160;26.100;2024-01-30T08:05:38;101736.91;;;12.92;64.48
56402;BME280;42299;35.160;26.100;2024-01-30T08:11:03;101732.94;;;13.55;60.29
56402;BME280;42299;35.160;26.100;2024-01-30T08:16:26;101747.28;;;13.22;65.05
56402;BME280;42299;35.160;26.100;2024-01-30T08:21:48;101743.84;;;13.26;78.35
56402;BME280;42299;35.160;26.100;2024-01-30T08:27:12;101744.91;;;12.95;83.04
56402;BME280;42299;35.160;26.100;2024-01-30T08:32:35;101751.19;;;12.23;96.64
56402;BME280;42299;35.160;26.100;2024-01-30T08:37:57;101740.03;;;11.68;100.00
56402;BME280;42299;35.160;26.100;2024-01-30T08:43:21;101756.59;;;11.31;100.00
56402;BME280;42299;35.160;26.100;2024-01-30T08:48:44;101747.50;;;12.54;100.00
56402;BME280;42299;35.160;26.100;2024-01-30T08:54:06;101736.06;;;12.94;98.08
56402;BME280;42299;35.160;26.100;2024-01-30T08:59:31;101725.53;;;12.97;88.69
56402;BME280;42299;35.160;26.100;2024-01-30T09:04:54;101751.47;;;12.71;88.04
56402;BME280;42299;35.160;26.100;2024-01-30T09:10:17;101757.03;;;11.14;100.00
56402;BME280;42299;35.160;26.100;2024-01-30T09:15:41;101767.47;;;10.26;100.00
56402;BME280;42299;35.160;26.100;2024-01-30T09:21:04;101771.16;;;9.81;100.00
56402;BME280;42299;35.160;26.100;2024-01-30T09:26:27;101766.38;;;9.22;100.00
56402;BME280;42299;35.160;26.100;2024-01-30T09:31:51;101763.34;;;8.66;100.00
56402;BME280;42299;35.160;26.100;2024-01-30T09:37:14;101765.31;;;8.29;100.00
56402;BME280;42299;35.160;26.100;2024-01-30T09:42:40;101756.59;;;8.30;100.00
56402;BME280;42299;35.160;26.100;2024-01-30T09:48:07;101743.56;;;8.76;100.00
56402;BME280;42299;35.160;26.100;2024-01-30T09:53:29;101738.25;;;9.44;100.00
56402;BME280;42299;35.160;26.100;2024-01-30T09:58:52;101722.00;;;10.63;100.00
56402;BME280;42299;35.160;26.100;2024-01-30T10:04:16;101712.84;;;12.83;100.00
56402;BME280;42299;35.160;26.100;2024-01-30T10:09:39;101722.47;;;12.04;100.00
56402;BME280;42299;35.160;26.100;2024-01-30T10:15:01;101713.66;;;12.41;100.00
56402;BME280;42299;35.160;26.100;2024-01-30T10:20:26;101700.97;;;12.26;100.00
56402;BME280;42299;35.160;26.100;2024-01-30T10:25:49;101689.91;;;12.44;100.00
56402;BME280;42299;35.160;26.100;2024-01-30T10:31:16;101690.34;;;13.04;100.00
56402;BME280;42299;35.160;26.100;2024-01-30T10:36:41;101680.97;;;12.78;100.00
56402;BME280;42299;35.160;26.100;2024-01-30T10:42:06;101671.63;;;12.97;100.00
56402;BME280;42299;35.160;26.100;2024-01-30T10:47:29;101680.59;;;13.03;100.00
56402;BME280;42299;35.160;26.100;2024-01-30T10:52:54;101700.09;;;13.49;100.00
56402;BME280;42299;35.160;26.100;2024-01-30T10:58:18;101698.78;;;14.26;100.00
56402;BME280;42299;35.160;26.100;2024-01-30T11:03:41;101723.06;;;13.06;100.00
56402;BME280;42299;35.160;26.100;2024-01-30T11:09:11;101717.22;;;13.21;100.00
56402;BME280;42299;35.160;26.100;2024-01-30T11:14:33;101708.84;;;11.56;100.00
56402;BME280;42299;35.160;26.100;2024-01-30T11:19:59;101688.50;;;10.61;100.00
56402;BME280;42299;35.160;26.100;2024-01-30T11:25:23;101683.81;;;11.75;100.00
56402;BME280;42299;35.160;26.100;2024-01-30T11:30:46;101663.72;;;14.49;100.00
56402;BME280;42299;35.160;26.100;2024-01-30T11:36:13;101666.53;;;15.32;100.00
56402;BME280;42299;35.160;26.100;2024-01-30T11:41:39;101666.66;;;14.11;100.00
56402;BME280;42299;35.160;26.100;2024-01-30T11:47:03;101651.41;;;12.21;100.00
56402;BME280;42299;35.160;26.100;2024-01-30T11:52:28;101649.34;;;11.39;100.00
56402;BME280;42299;35.160;26.100;2024-01-30T11:57:55;101629.78;;;12.01;100.00
56402;BME280;42299;35.160;26.100;2024-01-30T12:03:18;101599.28;;;12.57;100.00
56402;BME280;42299;35.160;26.100;2024-01-30T12:08:41;101593.59;;;12.83;100.00
56402;BME280;42299;35.160;26.100;2024-01-30T12:14:05;101585.47;;;12.73;100.00
56402;BME280;42299;35.160;26.100;2024-01-30T12:19:27;101572.22;;;12.73;100.00
56402;BME280;42299;35.160;26.100;2024-01-30T12:24:50;101567.06;;;12.81;100.00
56402;BME280;42299;35.160;26.100;2024-01-30T12:30:15;101548.00;;;12.99;100.00
56402;BME280;42299;35.160;26.100;2024-01-30T12:35:37;101551.00;;;13.70;100.00
56402;BME280;42299;35.160;26.100;2024-01-30T12:41:00;101552.75;;;13.69;100.00
56402;BME280;42299;35.160;26.100;2024-01-30T12:46:27;101561.88;;;13.32;100.00
56402;BME280;42299;35.160;26.100;2024-01-30T12:51:51;101564.31;;;12.75;100.00
56402;BME280;42299;35.160;26.100;2024-01-30T12:57:13;101580.59;;;12.51;100.00
56402;BME280;42299;35.160;26.100;2024-01-30T13:02:37;101592.22;;;12.58;100.00
56402;BME280;42299;35.160;26.100;2024-01-30T13:08:00;101588.75;;;12.62;100.00
56402;BME280;42299;35.160;26.100;2024-01-30T13:13:22;101602.13;;;12.66;100.00
56402;BME280;42299;35.160;26.100;2024-01-30T13:18:46;101592.31;;;12.62;100.00
56402;BME280;42299;35.160;26.100;2024-01-30T13:24:09;101591.53;;;12.66;100.00
56402;BME280;42299;35.160;26.100;2024-01-30T13:29:31;101594.25;;;13.14;100.00
56402;BME280;42299;35.160;26.100;2024-01-30T13:34:56;101598.13;;;13.33;100.00
56402;BME280;42299;35.160;26.100;2024-01-30T13:40:18;101599.91;;;13.34;100.00
56402;BME280;42299;35.160;26.100;2024-01-30T13:45:43;101600.81;;;13.35;100.00
56402;BME280;42299;35.160;26.100;2024-01-30T13:51:08;101612.53;;;13.47;100.00
56402;BME280;42299;35.160;26.100;2024-01-30T13:56:31;101612.84;;;13.67;100.00
56402;BME280;42299;35.160;26.100;2024-01-30T14:01:54;101604.91;;;13.18;100.00
56402;BME280;42299;35.160;26.100;2024-01-30T14:07:18;101608.41;;;12.71;100.00
56402;BME280;42299;35.160;26.100;2024-01-30T14:12:42;101606.41;;;12.60;100.00
56402;BME280;42299;35.160;26.100;2024-01-30T14:18:05;101610.25;;;12.33;100.00
56402;BME280;42299;35.160;26.100;2024-01-30T14:23:30;101609.66;;;12.08;100.00
56402;BME280;42299;35.160;26.100;2024-01-30T14:28:53;101612.31;;;11.73;100.00
56402;BME280;42299;35.160;26.100;2024-01-30T14:34:16;101615.50;;;11.26;100.00
56402;BME280;42299;35.160;26.100;2024-01-30T14:39:41;101615.66;;;10.67;100.00
56402;BME280;42299;35.160;26.100;2024-01-30T14:45:05;101604.03;;;10.32;100.00
56402;BME280;42299;35.160;26.100;2024-01-30T14:50:27;101602.72;;;9.91;100.00
56402;BME280;42299;35.160;26.100;2024-01-30T14:55:51;101598.53;;;9.70;100.00
56402;BME280;42299;35.160;26.100;2024-01-30T15:01:14;101601.09;;;9.68;100.00
56402;BME280;42299;35.160;26.100;2024-01-30T15:06:36;101598.81;;;9.79;100.00
56402;BME280;42299;35.160;26.100;2024-01-30T15:12:01;101603.72;;;9.95;100.00
56402;BME280;42299;35.160;26.100;2024-01-30T15:17:23;101590.97;;;10.09;100.00
56402;BME280;42299;35.160;26.100;2024-01-30T15:22:46;101608.69;;;10.13;100.00
56402;BME280;42299;35.160;26.100;2024-01-30T15:28:10;101598.13;;;10.13;100.00
56402;BME280;42299;35.160;26.100;2024-01-30T15:33:34;101598.91;;;9.82;100.00
56402;BME280;42299;35.160;26.100;2024-01-30T15:38:57;101613.63;;;9.48;100.00
56402;BME280;42299;35.160;26.100;2024-01-30T15:44:21;101632.63;;;9.38;100.00
56402;BME280;42299;35.160;26.100;2024-01-30T15:49:44;101645.16;;;9.72;100.00
56402;BME280;42299;35.160;26.100;2024-01-30T15:55:06;101645.38;;;9.78;100.00
56402;BME280;42299;35.160;26.100;2024-01-30T16:00:30;101643.16;;;9.90;100.00
56402;BME280;42299;35.160;26.100;2024-01-30T16:05:53;101652.03;;;9.94;100.00
56402;BME280;42299;35.160;26.100;2024-01-30T16:11:16;101663.91;;;9.29;100.00
56402;BME280;42299;35.160;26.100;2024-01-30T16:16:40;101667.44;;;9.06;100.00
56402;BME280;42299;35.160;26.100;2024-01-30T16:22:03;101685.00;;;9.05;100.00
56402;BME280;42299;35.160;26.100;2024-01-30T16:27:25;101684.19;;;9.08;100.00
56402;BME280;42299;35.160;26.100;2024-01-30T16:32:50;101688.41;;;9.03;100.00
56402;BME280;42299;35.160;26.100;2024-01-30T16:38:13;101684.69;;;9.22;100.00
56402;BME280;42299;35.160;26.100;2024-01-30T16:43:35;101677.81;;;9.25;100.00
56402;BME280;42299;35.160;26.100;2024-01-30T16:48:59;101676.44;;;9.11;100.00
56402;BME280;42299;35.160;26.100;2024-01-30T16:54:22;101688.41;;;9.03;100.00
56402;BME280;42299;35.160;26.100;2024-01-30T16:59:44;101690.25;;;8.82;100.00
56402;BME280;42299;35.160;26.100;2024-01-30T17:05:08;101680.84;;;8.64;100.00
56402;BME280;42299;35.160;26.100;2024-01-30T17:10:31;101693.66;;;8.33;100.00
56402;BME280;42299;35.160;26.100;2024-01-30T17:15:53;101707.13;;;7.99;100.00
56402;BME280;42299;35.160;26.100;2024-01-30T17:21:20;101718.38;;;8.17;100.00
56402;BME280;42299;35.160;26.100;2024-01-30T17:26:43;101712.72;;;8.07;100.00
56402;BME280;42299;35.160;26.100;2024-01-30T17:32:06;101711.34;;;7.95;100.00
56402;BME280;42299;35.160;26.100;2024-01-30T17:37:30;101703.13;;;7.88;100.00
56402;BME280;42299;35.160;26.100;2024-01-30T17:42:54;101704.94;;;7.89;100.00
56402;BME280;42299;35.160;26.100;2024-01-30T17:48:17;101704.31;;;7.74;100.00
56402;BME280;42299;35.160;26.100;2024-01-30T17:53:42;101717.66;;;7.78;100.00
56402;BME280;42299;35.160;26.100;2024-01-30T17:59:05;101722.00;;;7.98;100.00
56402;BME280;42299;35.160;26.100;2024-01-30T18:04:27;101704.81;;;7.86;100.00
56402;BME280;42299;35.160;26.100;2024-01-30T18:09:52;101710.84;;;7.83;100.00
56402;BME280;42299;35.160;26.100;2024-01-30T18:15:14;101714.94;;;8.18;100.00
56402;BME280;42299;35.160;26.100;2024-01-30T18:20:37;101724.84;;;8.46;100.00
56402;BME280;42299;35.160;26.100;2024-01-30T18:26:01;101721.31;;;8.46;100.00
56402;BME280;42299;35.160;26.100;2024-01-30T18:31:23;101718.38;;;8.17;100.00
56402;BME280;42299;35.160;26.100;2024-01-30T18:36:46;101699.25;;;7.99;100.00
56402;BME280;42299;35.160;26.100;2024-01-30T18:42:10;101706.41;;;7.82;100.00
56402;BME280;42299;35.160;26.100;2024-01-30T18:47:32;101702.09;;;7.43;100.00
56402;BME280;42299;35.160;26.100;2024-01-30T18:52:55;101701.72;;;7.34;100.00
56402;BME280;42299;35.160;26.100;2024-01-30T18:58:19;101703.47;;;7.14;100.00
56402;BME280;42299;35.160;26.100;2024-01-30T19:03:42;101708.44;;;7.08;100.00
56402;BME280;42299;35.160;26.100;2024-01-30T19:09:05;101709.47;;;6.92;100.00
56402;BME280;42299;35.160;26.100;2024-01-30T19:14:30;101705.22;;;6.76;100.00
56402;BME280;42299;35.160;26.100;2024-01-30T19:19:54;101691.78;;;6.69;100.00
56402;BME280;42299;35.160;26.100;2024-01-30T19:25:16;101685.38;;;6.82;100.00
56402;BME280;42299;35.160;26.100;2024-01-30T19:30:40;101683.22;;;7.11;100.00
56402;BME280;42299;35.160;26.100;2024-01-30T19:36:04;101679.28;;;7.42;100.00
56402;BME280;42299;35.160;26.100;2024-01-30T19:41:26;101671.22;;;7.58;100.00
56402;BME280;42299;35.160;26.100;2024-01-30T19:46:51;101678.72;;;7.70;100.00
56402;BME280;42299;35.160;26.100;2024-01-30T19:52:13;101677.00;;;7.70;100.00
56402;BME280;42299;35.160;26.100;2024-01-30T19:57:36;101676.00;;;7.27;100.00
56402;BME280;42299;35.160;26.100;2024-01-30T20:03:00;101667.81;;;7.00;100.00
56402;BME280;42299;35.160;26.100;2024-01-30T20:08:23;101676.25;;;6.93;100.00
56402;BME280;42299;35.160;26.100;2024-01-30T20:13:45;101675.06;;;6.86;100.00
56402;BME280;42299;35.160;26.100;2024-01-30T20:19:10;101678.66;;;7.07;100.00
56402;BME280;42299;35.160;26.100;2024-01-30T20:24:32;101681.41;;;7.10;100.00
56402;BME280;42299;35.160;26.100;2024-01-30T20:29:55;101673.66;;;7.33;100.00
56402;BME280;42299;35.160;26.100;2024-01-30T20:35:19;101674.03;;;7.21;100.00
56402;BME280;42299;35.160;26.100;2024-01-30T20:40:42;101670.44;;;7.19;100.00
56402;BME280;42299;35.160;26.100;2024-01-30T20:46:05;101663.47;;;7.00;100.00
56402;BME280;42299;35.160;26.100;2024-01-30T20:51:29;101649.22;;;7.14;100.00
56402;BME280;42299;35.160;26.100;2024-01-30T20:56:52;101653.16;;;7.05;100.00
56402;BME280;42299;35.160;26.100;2024-01-30T21:02:14;101658.84;;;6.95;100.00
56402;BME280;42299;35.160;26.100;2024-01-30T21:07:38;101660.34;;;7.28;100.00
56402;BME280;42299;35.160;26.100;2024-01-30T21:13:01;101660.59;;;7.55;100.00
56402;BME280;42299;35.160;26.100;2024-01-30T21:18:24;101657.91;;;7.33;100.00
56402;BME280;42299;35.160;26.100;2024-01-30T21:23:48;101659.97;;;7.60;100.00
56402;BME280;42299;35.160;26.100;2024-01-30T21:29:11;101666.50;;;7.70;100.00
56402;BME280;42299;35.160;26.100;2024-01-30T21:34:33;101671.81;;;7.72;100.00
56402;BME280;42299;35.160;26.100;2024-01-30T21:39:57;101667.47;;;7.94;100.00
56402;BME280;42299;35.160;26.100;2024-01-30T21:45:20;101663.78;;;7.89;100.00
56402;BME280;42299;35.160;26.100;2024-01-30T21:50:44;101670.66;;;7.65;100.00
56402;BME280;42299;35.160;26.100;2024-01-30T21:56:08;101672.63;;;7.50;100.00
56402;BME280;42299;35.160;26.100;2024-01-30T22:01:32;101670.00;;;7.50;100.00
56402;BME280;42299;35.160;26.100;2024-01-30T22:06:55;101653.66;;;7.57;100.00
56402;BME280;42299;35.160;26.100;2024-01-30T22:12:19;101659.00;;;7.58;100.00
56402;BME280;42299;35.160;26.100;2024-01-30T22:17:42;101652.47;;;7.28;100.00
56402;BME280;42299;35.160;26.100;2024-01-30T22:23:04;101663.28;;;7.16;100.00
56402;BME280;42299;35.160;26.100;2024-01-30T22:28:28;101650.53;;;7.05;100.00
56402;BME280;42299;35.160;26.100;2024-01-30T22:33:51;101652.81;;;6.97;100.00
56402;BME280;42299;35.160;26.100;2024-01-30T22:39:14;101643.50;;;6.85;100.00
56402;BME280;42299;35.160;26.100;2024-01-30T22:44:38;101640.78;;;7.02;100.00
56402;BME280;42299;35.160;26.100;2024-01-30T22:50:01;101634.59;;;7.00;100.00
56402;BME280;42299;35.160;26.100;2024-01-30T22:55:25;101637.34;;;7.03;100.00
56402;BME280;42299;35.160;26.100;2024-01-30T23:00:50;101629.72;;;7.09;100.00
56402;BME280;42299;35.160;26.100;2024-01-30T23:06:12;101637.75;;;7.12;100.00
56402;BME280;42299;35.160;26.100;2024-01-30T23:11:35;101626.34;;;7.12;100.00
56402;BME280;42299;35.160;26.100;2024-01-30T23:16:59;101627.91;;;6.88;100.00
56402;BME280;42299;35.160;26.100;2024-01-30T23:22:21;101631.22;;;6.64;100.00
56402;BME280;42299;35.160;26.100;2024-01-30T23:27:44;101637.50;;;6.49;100.00
56402;BME280;42299;35.160;26.100;2024-01-30T23:33:08;101630.31;;;6.64;100.00
56402;BME280;42299;35.160;26.100;2024-01-30T23:38:31;101636.44;;;6.63;100.00
56402;BME280;42299;35.160;26.100;2024-01-30T23:43:53;101639.31;;;6.69;100.00
56402;BME280;42299;35.160;26.100;2024-01-30T23:49:19;101634.28;;;6.54;100.00
56402;BME280;42299;35.160;26.100;2024-01-30T23:54:42;101646.88;;;6.44;100.00
